createdAt,value
2018-06-08T00:01:07.243Z,21.79
2018-06-08T00:03:37.987Z,21.68
2018-06-08T00:06:08.376Z,21.87
2018-06-08T00:08:38.726Z,21.74
2018-06-08T00:11:09.231Z,21.76
2018-06-08T00:13:39.674Z,21.83
2018-06-08T00:16:10.080Z,21.91
2018-06-08T00:18:40.750Z,21.74
2018-06-08T00:21:11.139Z,21.66
2018-06-08T00:23:41.479Z,21.58
2018-06-08T00:26:11.851Z,21.69
2018-06-08T00:28:41.872Z,21.54
2018-06-08T00:31:18.849Z,21.57
2018-06-08T00:33:49.531Z,21.68
2018-06-08T00:36:19.908Z,21.57
2018-06-08T00:38:50.231Z,21.77
2018-06-08T00:41:20.613Z,21.83
2018-06-08T00:43:50.952Z,21.86
2018-06-08T00:46:21.363Z,21.86
2018-06-08T00:48:51.697Z,21.69
2018-06-08T00:51:22.052Z,21.62
2018-06-08T00:53:53.343Z,21.53
2018-06-08T00:57:32.985Z,21.44
2018-06-08T01:00:03.359Z,21.26
2018-06-08T01:02:33.740Z,21.28
2018-06-08T01:05:04.128Z,21.42
2018-06-08T01:07:34.567Z,21.38
2018-06-08T01:10:05.220Z,21.36
2018-06-08T01:12:35.638Z,21.42
2018-06-08T01:15:06.512Z,21.35
2018-06-08T01:17:36.866Z,21.25
2018-06-08T01:20:07.289Z,21.20
2018-06-08T01:22:37.697Z,21.27
2018-06-08T01:25:08.050Z,21.23
2018-06-08T01:27:38.437Z,21.19
2018-06-08T01:30:08.770Z,21.16
2018-06-08T01:32:39.124Z,21.10
2018-06-08T01:35:09.621Z,21.11
2018-06-08T01:37:39.984Z,21.07
2018-06-08T01:40:10.336Z,21.11
2018-06-08T01:42:40.719Z,20.99
2018-06-08T01:45:11.057Z,20.96
2018-06-08T01:47:41.418Z,20.97
2018-06-08T01:50:11.754Z,20.95
2018-06-08T01:52:42.274Z,20.93
2018-06-08T01:55:12.528Z,21.06
2018-06-08T01:57:42.916Z,20.96
2018-06-08T02:00:13.315Z,21.07
2018-06-08T02:02:43.684Z,21.01
2018-06-08T02:05:14.116Z,20.93
2018-06-08T02:07:44.796Z,21.09
2018-06-08T02:10:15.152Z,21.02
2018-06-08T02:12:45.573Z,21.13
2018-06-08T02:15:15.927Z,21.26
2018-06-08T02:17:46.283Z,21.06
2018-06-08T02:20:16.634Z,21.03
2018-06-08T02:22:47.009Z,21.13
2018-06-08T02:25:17.375Z,21.13
2018-06-08T02:27:48.022Z,20.99
2018-06-08T02:30:18.517Z,21.00
2018-06-08T02:32:48.919Z,20.90
2018-06-08T02:35:19.518Z,20.78
2018-06-08T02:37:49.844Z,20.79
2018-06-08T02:40:20.274Z,20.82
2018-06-08T02:42:50.658Z,21.08
2018-06-08T02:45:21.047Z,21.03
2018-06-08T02:47:52.323Z,21.26
2018-06-08T02:50:22.630Z,21.25
2018-06-08T02:52:53.004Z,21.41
2018-06-08T02:55:23.376Z,21.39
2018-06-08T02:57:54.021Z,21.40
2018-06-08T03:00:24.532Z,21.21
2018-06-08T03:02:54.884Z,21.19
2018-06-08T03:05:25.280Z,21.13
2018-06-08T03:07:55.904Z,21.17
2018-06-08T03:10:27.994Z,21.12
2018-06-08T03:12:58.309Z,21.03
2018-06-08T03:15:28.720Z,21.12
2018-06-08T03:17:59.260Z,21.18
2018-06-08T03:20:30.892Z,21.07
2018-06-08T03:23:01.251Z,20.97
2018-06-08T03:25:32.501Z,20.98
2018-06-08T03:28:03.068Z,20.74
2018-06-08T03:30:33.503Z,20.54
2018-06-08T03:33:03.909Z,20.41
2018-06-08T03:35:34.368Z,20.25
2018-06-08T03:38:05.180Z,20.30
2018-06-08T03:40:36.100Z,20.23
2018-06-08T03:43:06.262Z,20.18
2018-06-08T03:45:36.589Z,20.10
2018-06-08T03:48:07.134Z,20.09
2018-06-08T03:50:37.751Z,20.14
2018-06-08T03:53:08.170Z,20.34
2018-06-08T03:55:40.229Z,20.63
2018-06-08T03:58:10.635Z,20.77
2018-06-08T04:00:40.973Z,20.69
2018-06-08T04:03:11.359Z,20.81
2018-06-08T04:05:41.676Z,20.85
2018-06-08T04:08:12.115Z,20.65
2018-06-08T04:10:42.567Z,20.50
2018-06-08T04:13:13.078Z,20.47
2018-06-08T04:15:43.612Z,20.45
2018-06-08T04:18:14.056Z,20.43
2018-06-08T04:20:44.528Z,20.40
2018-06-08T04:23:15.035Z,20.59
2018-06-08T04:25:45.478Z,20.67
2018-06-08T04:28:16.049Z,20.66
2018-06-08T04:30:46.529Z,20.67
2018-06-08T04:33:16.588Z,20.67
2018-06-08T04:35:46.959Z,20.64
2018-06-08T04:38:17.411Z,20.89
2018-06-08T04:40:47.942Z,20.75
2018-06-08T04:43:18.503Z,20.90
2018-06-08T04:45:48.979Z,20.82
2018-06-08T04:48:19.456Z,20.81
2018-06-08T04:50:49.902Z,20.74
2018-06-08T04:53:20.357Z,20.81
2018-06-08T04:55:50.813Z,20.82
2018-06-08T04:58:21.259Z,20.89
2018-06-08T05:00:51.716Z,20.85
2018-06-08T05:03:22.011Z,20.81
2018-06-08T05:05:52.354Z,20.90
2018-06-08T05:08:22.734Z,20.94
2018-06-08T05:10:53.226Z,20.84
2018-06-08T05:13:23.624Z,20.91
2018-06-08T05:15:53.992Z,20.98
2018-06-08T05:18:24.352Z,21.15
2018-06-08T05:20:55.561Z,21.32
2018-06-08T05:23:25.909Z,21.57
2018-06-08T05:25:56.331Z,21.75
2018-06-08T05:28:26.718Z,21.89
2018-06-08T05:30:57.204Z,21.86
2018-06-08T05:33:27.568Z,22.03
2018-06-08T05:35:59.259Z,22.01
2018-06-08T05:38:29.691Z,22.13
2018-06-08T05:41:00.066Z,22.04
2018-06-08T05:43:31.449Z,22.09
2018-06-08T05:46:01.891Z,22.08
2018-06-08T05:48:32.326Z,21.94
2018-06-08T05:51:03.043Z,21.95
2018-06-08T05:53:33.426Z,21.89
2018-06-08T05:56:03.816Z,21.82
2018-06-08T05:58:34.328Z,21.71
2018-06-08T06:01:04.697Z,21.92
2018-06-08T06:03:35.088Z,21.88
2018-06-08T06:06:05.525Z,21.97
2018-06-08T06:08:35.899Z,21.98
2018-06-08T06:11:06.363Z,22.08
2018-06-08T06:13:36.896Z,22.26
2018-06-08T06:16:07.321Z,22.35
2018-06-08T06:18:37.665Z,22.49
2018-06-08T06:21:07.715Z,22.33
2018-06-08T06:23:38.000Z,22.21
2018-06-08T06:26:08.474Z,22.36
2018-06-08T06:28:38.888Z,22.24
2018-06-08T06:31:09.244Z,22.51
2018-06-08T06:33:39.642Z,22.46
2018-06-08T06:36:10.074Z,22.50
2018-06-08T06:38:40.533Z,22.56
2018-06-08T06:41:10.877Z,22.76
2018-06-08T06:43:41.276Z,22.77
2018-06-08T06:46:11.711Z,22.80
2018-06-08T06:48:42.054Z,22.84
2018-06-08T06:51:12.407Z,22.85
2018-06-08T06:53:42.778Z,22.84
2018-06-08T06:56:13.159Z,22.94
2018-06-08T06:58:43.528Z,23.17
2018-06-08T07:01:13.986Z,23.14
2018-06-08T07:03:44.166Z,23.19
2018-06-08T07:06:14.500Z,23.36
2018-06-08T07:08:44.918Z,23.38
2018-06-08T07:11:15.248Z,23.28
2018-06-08T07:13:45.597Z,23.36
2018-06-08T07:16:15.897Z,23.49
2018-06-08T07:18:46.267Z,23.42
2018-06-08T07:21:16.547Z,23.34
2018-06-08T07:23:47.042Z,23.39
2018-06-08T07:26:17.527Z,23.50
2018-06-08T07:28:47.852Z,23.35
2018-06-08T07:31:18.202Z,23.36
2018-06-08T07:33:48.603Z,23.42
2018-06-08T07:36:18.940Z,23.43
2018-06-08T07:38:49.338Z,23.55
2018-06-08T07:41:19.726Z,23.46
2018-06-08T07:43:50.192Z,23.43
2018-06-08T07:46:20.808Z,23.49
2018-06-08T07:48:51.241Z,23.46
2018-06-08T07:51:21.574Z,23.38
2018-06-08T07:53:51.981Z,23.44
2018-06-08T07:56:22.283Z,23.78
2018-06-08T07:58:52.675Z,24.16
2018-06-08T08:01:23.193Z,24.40
2018-06-08T08:03:53.794Z,24.33
2018-06-08T08:06:24.286Z,24.28
2018-06-08T08:08:54.583Z,24.23
2018-06-08T08:11:25.061Z,24.04
2018-06-08T08:13:55.413Z,23.96
2018-06-08T08:16:25.707Z,23.88
2018-06-08T08:18:56.143Z,23.89
2018-06-08T08:21:26.479Z,24.14
2018-06-08T08:23:56.793Z,24.36
2018-06-08T08:26:27.147Z,24.43
2018-06-08T08:28:57.644Z,24.50
2018-06-08T08:31:27.951Z,24.75
2018-06-08T08:33:59.365Z,24.98
2018-06-08T08:36:29.601Z,24.93
2018-06-08T08:38:59.921Z,24.80
2018-06-08T08:41:31.510Z,24.68
2018-06-08T08:44:01.819Z,24.59
2018-06-08T08:46:31.906Z,24.53
2018-06-08T08:49:02.463Z,24.46
2018-06-08T08:51:32.872Z,24.51
2018-06-08T08:54:03.164Z,24.85
2018-06-08T08:56:33.449Z,25.18
2018-06-08T08:59:03.762Z,25.16
2018-06-08T09:01:34.161Z,24.84
2018-06-08T09:04:04.826Z,24.97
2018-06-08T09:06:35.123Z,24.66
2018-06-08T09:09:07.260Z,24.67
2018-06-08T09:11:37.646Z,24.70
2018-06-08T09:14:08.014Z,24.94
2018-06-08T09:16:38.424Z,24.89
2018-06-08T09:19:08.716Z,24.93
2018-06-08T09:21:39.062Z,24.84
2018-06-08T09:24:09.405Z,25.02
2018-06-08T09:26:39.713Z,25.31
2018-06-08T09:29:10.060Z,25.37
2018-06-08T09:31:40.495Z,25.34
2018-06-08T09:34:10.808Z,25.27
2018-06-08T09:36:41.119Z,25.31
2018-06-08T09:39:11.553Z,25.50
2018-06-08T09:41:41.872Z,25.72
2018-06-08T09:44:13.219Z,25.81
2018-06-08T09:46:44.357Z,26.06
2018-06-08T09:49:14.724Z,26.28
2018-06-08T09:51:45.119Z,26.31
2018-06-08T09:54:15.500Z,26.43
2018-06-08T09:56:45.819Z,26.71
2018-06-08T09:59:16.275Z,26.85
2018-06-08T10:01:46.677Z,26.64
2018-06-08T10:04:17.052Z,26.32
2018-06-08T10:06:47.405Z,26.10
2018-06-08T10:09:17.794Z,26.05
2018-06-08T10:11:48.289Z,25.93
2018-06-08T10:14:18.604Z,25.90
2018-06-08T10:16:48.906Z,25.72
2018-06-08T10:19:19.197Z,25.74
2018-06-08T10:21:49.476Z,25.93
2018-06-08T10:24:19.924Z,26.09
2018-06-08T10:26:50.303Z,26.39
2018-06-08T10:29:21.366Z,26.75
2018-06-08T10:31:51.692Z,27.00
2018-06-08T10:34:22.016Z,27.24
2018-06-08T10:36:52.339Z,27.32
2018-06-08T10:39:22.720Z,27.31
2018-06-08T10:41:53.068Z,27.08
2018-06-08T10:44:23.425Z,26.80
2018-06-08T10:46:53.861Z,26.58
2018-06-08T10:49:24.248Z,26.46
2018-06-08T10:51:54.560Z,26.47
2018-06-08T10:54:24.905Z,26.53
2018-06-08T10:56:55.228Z,26.59
2018-06-08T10:59:25.561Z,26.78
2018-06-08T11:01:56.463Z,26.89
2018-06-08T11:04:26.965Z,27.20
2018-06-08T11:06:57.311Z,27.50
2018-06-08T11:09:27.671Z,27.79
2018-06-08T11:11:57.979Z,27.95
2018-06-08T11:14:28.365Z,28.00
2018-06-08T11:16:58.709Z,28.01
2018-06-08T11:19:29.012Z,27.86
2018-06-08T11:21:59.337Z,27.75
2018-06-08T11:24:29.672Z,27.91
2018-06-08T11:27:02.537Z,27.99
2018-06-08T11:29:32.797Z,28.11
2018-06-08T11:32:03.113Z,28.28
2018-06-08T11:34:33.493Z,28.38
2018-06-08T11:37:03.886Z,28.40
2018-06-08T11:39:34.712Z,28.60
2018-06-08T11:42:05.148Z,28.67
2018-06-08T11:44:35.533Z,28.49
2018-06-08T11:47:05.857Z,28.65
2018-06-08T11:49:36.264Z,28.72
2018-06-08T11:52:06.633Z,28.79
2018-06-08T11:54:37.289Z,28.87
2018-06-08T11:57:07.607Z,28.91
2018-06-08T11:59:38.245Z,29.04
2018-06-08T12:02:08.607Z,29.24
2018-06-08T12:04:39.041Z,29.30
2018-06-08T12:07:09.447Z,29.40
2018-06-08T12:09:39.978Z,29.57
2018-06-08T12:12:10.308Z,29.61
2018-06-08T12:14:40.785Z,29.82
2018-06-08T12:17:11.193Z,29.81
2018-06-08T12:19:41.487Z,29.92
2018-06-08T12:22:11.804Z,29.91
2018-06-08T12:24:42.343Z,29.91
2018-06-08T12:27:12.882Z,29.82
2018-06-08T12:29:43.345Z,29.85
2018-06-08T12:32:13.798Z,30.05
2018-06-08T12:34:44.227Z,30.21
2018-06-08T12:37:14.682Z,30.29
2018-06-08T12:39:45.056Z,29.84
2018-06-08T12:42:15.669Z,29.72
2018-06-08T12:44:46.169Z,29.61
2018-06-08T12:47:16.578Z,29.67
2018-06-08T12:49:46.967Z,29.79
2018-06-08T12:52:18.040Z,30.05
2018-06-08T12:54:48.429Z,30.11
2018-06-08T12:57:18.870Z,30.35
2018-06-08T12:59:49.342Z,30.46
2018-06-08T13:02:19.805Z,30.39
2018-06-08T13:04:50.239Z,30.10
2018-06-08T13:07:20.644Z,29.91
2018-06-08T13:09:51.099Z,29.93
2018-06-08T13:12:22.753Z,30.03
2018-06-08T13:14:53.151Z,29.93
2018-06-08T13:17:23.952Z,29.91
2018-06-08T13:19:54.272Z,29.88
2018-06-08T13:22:24.769Z,29.94
2018-06-08T13:24:55.204Z,30.03
2018-06-08T13:27:26.477Z,30.37
2018-06-08T13:29:57.012Z,30.69
2018-06-08T13:32:27.533Z,30.67
2018-06-08T13:34:57.934Z,30.91
2018-06-08T13:37:28.360Z,30.82
2018-06-08T13:39:58.790Z,31.05
2018-06-08T13:42:29.288Z,30.85
2018-06-08T13:45:00.017Z,30.72
2018-06-08T13:47:30.615Z,30.82
2018-06-08T13:50:01.062Z,31.08
2018-06-08T13:52:32.428Z,31.34
2018-06-08T13:55:02.861Z,31.53
2018-06-08T13:57:33.494Z,31.18
2018-06-08T14:00:03.925Z,31.09
2018-06-08T14:02:34.351Z,31.45
2018-06-08T14:05:04.916Z,31.62
2018-06-08T14:07:35.258Z,31.68
2018-06-08T14:10:05.779Z,31.73
2018-06-08T14:12:36.022Z,31.92
2018-06-08T14:15:06.341Z,32.14
2018-06-08T14:17:36.792Z,32.12
2018-06-08T14:20:07.170Z,32.08
2018-06-08T14:22:37.546Z,32.08
2018-06-08T14:25:07.921Z,32.01
2018-06-08T14:27:38.449Z,31.87
2018-06-08T14:30:08.804Z,31.75
2018-06-08T14:32:39.200Z,31.90
2018-06-08T14:35:09.581Z,32.14
2018-06-08T14:37:40.135Z,32.24
2018-06-08T14:40:10.590Z,32.28
2018-06-08T14:42:40.993Z,32.10
2018-06-08T14:45:11.340Z,31.98
2018-06-08T14:47:41.770Z,32.02
2018-06-08T14:50:12.245Z,32.19
2018-06-08T14:52:42.712Z,32.37
2018-06-08T14:55:13.089Z,32.16
2018-06-08T14:57:43.467Z,32.05
2018-06-08T15:00:13.895Z,31.82
2018-06-08T15:02:44.295Z,32.07
2018-06-08T15:05:14.651Z,32.36
2018-06-08T15:07:45.152Z,32.63
2018-06-08T15:10:15.476Z,32.68
2018-06-08T15:12:45.925Z,32.85
2018-06-08T15:15:16.323Z,32.72
2018-06-08T15:17:46.771Z,32.66
2018-06-08T15:20:17.195Z,32.67
2018-06-08T15:22:47.635Z,32.76
2018-06-08T15:25:18.165Z,32.84
2018-06-08T15:27:48.784Z,32.79
2018-06-08T15:30:19.280Z,32.72
2018-06-08T15:32:49.715Z,32.28
2018-06-08T15:35:20.083Z,32.05
2018-06-08T15:37:50.420Z,32.14
2018-06-08T15:40:20.959Z,32.19
2018-06-08T15:42:51.481Z,31.97
2018-06-08T15:45:22.838Z,32.09
2018-06-08T15:47:52.953Z,32.47
2018-06-08T15:50:23.343Z,32.65
2018-06-08T15:52:53.949Z,32.87
2018-06-08T15:55:24.346Z,32.99
2018-06-08T15:57:54.514Z,32.92
2018-06-08T16:00:24.788Z,33.11
2018-06-08T16:02:55.192Z,33.25
2018-06-08T16:05:25.458Z,33.33
2018-06-08T16:07:56.267Z,33.25
2018-06-08T16:10:29.140Z,33.19
2018-06-08T16:12:59.228Z,32.99
2018-06-08T16:15:29.161Z,32.65
2018-06-08T16:17:59.474Z,32.47
2018-06-08T16:20:29.850Z,31.89
2018-06-08T16:23:00.339Z,32.05
2018-06-08T16:25:30.708Z,32.16
2018-06-08T16:28:01.104Z,32.28
2018-06-08T16:30:32.746Z,32.36
2018-06-08T16:33:02.804Z,32.55
2018-06-08T16:35:33.090Z,32.68
2018-06-08T16:38:03.439Z,32.88
2018-06-08T16:40:33.866Z,32.81
2018-06-08T16:43:04.338Z,32.94
2018-06-08T16:45:34.677Z,33.10
2018-06-08T16:48:05.212Z,33.12
2018-06-08T16:50:35.372Z,33.16
2018-06-08T16:53:05.709Z,32.71
2018-06-08T16:55:36.086Z,32.38
2018-06-08T16:58:06.475Z,32.07
2018-06-08T17:00:36.905Z,31.98
2018-06-08T17:03:07.244Z,32.19
2018-06-08T17:05:37.792Z,32.35
2018-06-08T17:08:08.207Z,32.45
2018-06-08T17:10:38.634Z,33.00
2018-06-08T17:13:09.061Z,33.77
2018-06-08T17:15:39.624Z,34.16
2018-06-08T17:18:09.990Z,34.67
2018-06-08T17:20:40.484Z,34.95
2018-06-08T17:23:10.910Z,34.15
2018-06-08T17:25:41.350Z,33.26
2018-06-08T17:28:11.737Z,32.21
2018-06-08T17:30:42.219Z,31.57
2018-06-08T17:33:12.594Z,31.42
2018-06-08T17:35:43.020Z,31.12
2018-06-08T17:38:13.555Z,30.69
2018-06-08T17:40:43.977Z,30.32
2018-06-08T17:43:14.392Z,30.01
2018-06-08T17:45:44.931Z,29.62
2018-06-08T17:48:15.279Z,29.32
2018-06-08T17:50:45.736Z,29.08
2018-06-08T17:53:17.770Z,29.02
2018-06-08T17:55:48.197Z,28.92
2018-06-08T17:58:18.569Z,28.88
2018-06-08T18:00:49.142Z,28.83
2018-06-08T18:03:20.020Z,28.95
2018-06-08T18:05:50.488Z,29.05
2018-06-08T18:08:20.891Z,29.10
2018-06-08T18:10:51.716Z,29.30
2018-06-08T18:13:22.096Z,29.28
2018-06-08T18:15:52.560Z,29.23
2018-06-08T18:18:22.950Z,29.11
2018-06-08T18:20:53.417Z,28.97
2018-06-08T18:23:24.202Z,28.82
2018-06-08T18:25:54.731Z,28.65
2018-06-08T18:28:25.119Z,28.44
2018-06-08T18:30:55.479Z,28.37
2018-06-08T18:33:25.855Z,28.29
2018-06-08T18:35:56.371Z,28.26
2018-06-08T18:38:26.868Z,28.29
2018-06-08T18:40:57.336Z,28.27
2018-06-08T18:43:27.800Z,28.26
2018-06-08T18:45:58.343Z,28.12
2018-06-08T18:48:28.922Z,27.86
2018-06-08T18:50:59.545Z,27.61
2018-06-08T18:53:30.080Z,27.23
2018-06-08T18:56:00.760Z,27.20
2018-06-08T18:58:31.287Z,26.97
2018-06-08T19:01:01.858Z,26.99
2018-06-08T19:03:34.176Z,26.80
2018-06-08T19:06:04.916Z,26.50
2018-06-08T19:08:35.594Z,26.25
2018-06-08T19:11:06.405Z,26.27
2018-06-08T19:13:37.204Z,26.20
2018-06-08T19:16:07.733Z,25.98
2018-06-08T19:18:38.247Z,25.65
2018-06-08T19:21:09.169Z,25.51
2018-06-08T19:23:39.655Z,25.39
2018-06-08T19:26:10.132Z,25.04
2018-06-08T19:28:40.745Z,25.19
2018-06-08T19:31:11.305Z,24.84
2018-06-08T19:33:41.854Z,24.72
2018-06-08T19:36:12.431Z,24.80
2018-06-08T19:38:43.173Z,24.97
2018-06-08T19:41:13.613Z,25.07
2018-06-08T19:43:44.432Z,25.04
2018-06-08T19:46:15.302Z,25.02
2018-06-08T19:48:46.003Z,25.09
2018-06-08T19:51:23.274Z,25.16
2018-06-08T19:53:54.057Z,25.18
2018-06-08T19:56:24.216Z,25.23
2018-06-08T19:58:54.662Z,25.16
2018-06-08T20:01:25.124Z,25.05
2018-06-08T20:03:55.707Z,24.54
2018-06-08T20:06:26.763Z,24.19
2018-06-08T20:08:57.294Z,24.36
2018-06-08T20:11:27.654Z,24.56
2018-06-08T20:13:58.088Z,24.63
2018-06-08T20:16:28.604Z,24.63
2018-06-08T20:18:59.120Z,24.79
2018-06-08T20:21:29.547Z,24.90
2018-06-08T20:24:00.030Z,25.06
2018-06-08T20:26:30.551Z,24.99
2018-06-08T20:29:00.963Z,24.80
2018-06-08T20:31:31.657Z,24.74
2018-06-08T20:34:02.081Z,24.56
2018-06-08T20:36:33.357Z,24.42
2018-06-08T20:39:04.174Z,24.40
2018-06-08T20:41:34.731Z,24.50
2018-06-08T20:44:05.404Z,24.32
2018-06-08T20:46:36.076Z,24.47
2018-06-08T20:49:06.471Z,24.46
2018-06-08T20:51:37.148Z,24.50
2018-06-08T20:54:07.792Z,24.43
2018-06-08T20:56:38.287Z,24.27
2018-06-08T20:59:09.209Z,24.14
2018-06-08T21:01:39.763Z,24.13
2018-06-08T21:04:10.199Z,23.98
2018-06-08T21:06:40.592Z,23.89
2018-06-08T21:09:11.044Z,23.75
2018-06-08T21:11:41.506Z,23.61
2018-06-08T21:14:11.966Z,23.48
2018-06-08T21:16:42.373Z,23.54
2018-06-08T21:19:12.720Z,23.65
2018-06-08T21:21:43.060Z,23.78
2018-06-08T21:24:13.535Z,23.88
2018-06-08T21:26:44.156Z,24.03
2018-06-08T21:29:14.658Z,24.03
2018-06-08T21:31:45.336Z,23.92
2018-06-08T21:34:15.841Z,23.73
2018-06-08T21:36:46.452Z,23.65
2018-06-08T21:39:17.307Z,23.79
2018-06-08T21:41:47.756Z,23.87
2018-06-08T21:44:18.190Z,24.02
2018-06-08T21:46:48.671Z,23.85
2018-06-08T21:49:19.321Z,23.83
2018-06-08T21:51:49.889Z,23.77
2018-06-08T21:54:20.279Z,23.84
2018-06-08T21:56:50.764Z,23.77
2018-06-08T21:59:21.166Z,23.74
2018-06-08T22:01:51.668Z,23.81
2018-06-08T22:04:22.426Z,23.79
2018-06-08T22:06:59.366Z,23.76
2018-06-08T22:09:29.676Z,23.62
2018-06-08T22:12:00.115Z,23.59
2018-06-08T22:14:30.583Z,23.61
2018-06-08T22:17:01.158Z,23.76
2018-06-08T22:19:31.656Z,23.54
2018-06-08T22:22:02.070Z,23.30
2018-06-08T22:24:33.570Z,23.12
2018-06-08T22:27:04.047Z,23.00
2018-06-08T22:29:34.447Z,22.83
2018-06-08T22:32:04.967Z,22.73
2018-06-08T22:34:35.393Z,22.64
2018-06-08T22:37:05.995Z,22.76
2018-06-08T22:39:36.775Z,22.63
2018-06-08T22:42:07.163Z,22.64
2018-06-08T22:44:37.625Z,22.48
2018-06-08T22:47:08.372Z,22.37
2018-06-08T22:49:38.758Z,22.53
2018-06-08T22:52:09.129Z,22.30
2018-06-08T22:54:39.643Z,22.44
2018-06-08T22:57:10.049Z,22.61
2018-06-08T22:59:40.454Z,22.55
2018-06-08T23:02:10.819Z,22.66
2018-06-08T23:04:41.307Z,22.53
2018-06-08T23:07:11.682Z,22.52
2018-06-08T23:09:42.082Z,22.30
2018-06-08T23:12:12.484Z,22.28
2018-06-08T23:14:42.909Z,22.28
2018-06-08T23:17:13.007Z,22.24
2018-06-08T23:19:43.422Z,22.23
2018-06-08T23:22:20.513Z,22.21
2018-06-08T23:24:50.545Z,22.23
2018-06-08T23:27:20.880Z,22.32
2018-06-08T23:29:51.367Z,22.59
2018-06-08T23:32:21.977Z,22.61
2018-06-08T23:34:52.455Z,22.75
2018-06-08T23:37:22.908Z,22.75
2018-06-08T23:39:53.267Z,22.84
2018-06-08T23:42:23.601Z,22.82
2018-06-08T23:44:53.918Z,22.78
2018-06-08T23:47:24.312Z,22.63
2018-06-08T23:49:54.750Z,22.54
2018-06-08T23:52:25.187Z,22.66
2018-06-08T23:54:55.752Z,22.75
2018-06-08T23:57:26.252Z,22.58
2018-06-08T23:59:56.635Z,22.70
